Time;durP1;ratioP1;P1;durP2;ratioP2;P2;SDS_P1;SDS_P2;PMS_P1;PMS_P2;Temp;Humidity;BMP_temperature;BMP_pressure;BME280_temperature;BME280_humidity;BME280_pressure;Samples;Min_cycle;Max_cycle;Signal;HPM_P1;HPM_P2
2023/03/07 00:00:11;;;;;;;16.48;4.05;;;3.50;99.90;;;;;;6158101;23;20368;-91
2023/03/07 00:02:37;;;;;;;15.70;3.67;;;3.50;99.90;;;;;;6160415;23;20016;-91
2023/03/07 00:05:03;;;;;;;11.88;3.92;;;3.50;99.90;;;;;;6159908;23;20072;-90
2023/03/07 00:07:30;;;;;;;16.08;4.18;;;3.40;99.90;;;;;;6159539;23;20005;-91
2023/03/07 00:09:56;;;;;;;10.90;3.63;;;3.40;99.90;;;;;;6160285;23;20009;-89
2023/03/07 00:12:22;;;;;;;9.70;3.38;;;3.40;99.90;;;;;;6159852;23;20023;-90
2023/03/07 00:14:47;;;;;;;14.68;4.65;;;3.40;99.90;;;;;;6160085;23;20068;-89
2023/03/07 00:17:13;;;;;;;10.45;3.63;;;3.40;99.90;;;;;;6185963;23;20452;-90
2023/03/07 00:19:42;;;;;;;9.75;3.92;;;3.40;99.90;;;;;;6159711;23;20005;-90
2023/03/07 00:22:07;;;;;;;11.75;4.07;;;3.40;99.90;;;;;;6159675;23;20065;-91
2023/03/07 00:24:33;;;;;;;12.77;4.15;;;3.40;99.90;;;;;;6185870;23;20001;-91
2023/03/07 00:26:58;;;;;;;14.70;4.57;;;3.30;99.90;;;;;;6185803;23;20433;-91
2023/03/07 00:29:24;;;;;;;8.77;3.20;;;3.30;99.90;;;;;;6159709;23;20437;-91
2023/03/07 00:31:50;;;;;;;9.93;3.60;;;3.30;99.90;;;;;;6159255;23;20005;-89
2023/03/07 00:34:15;;;;;;;12.73;3.47;;;3.30;99.90;;;;;;6186031;23;20013;-91
2023/03/07 00:36:41;;;;;;;10.63;3.30;;;3.30;99.90;;;;;;6159569;23;20444;-90
2023/03/07 00:39:07;;;;;;;12.15;3.40;;;3.30;99.90;;;;;;6186071;23;20001;-90
2023/03/07 00:41:33;;;;;;;16.10;3.90;;;3.30;99.90;;;;;;6159531;23;20001;-90
2023/03/07 00:43:59;;;;;;;11.20;3.83;;;3.30;99.90;;;;;;6159470;23;20040;-90
2023/03/07 00:46:25;;;;;;;26.33;4.65;;;3.30;99.90;;;;;;6160974;23;20013;-91
2023/03/07 00:48:51;;;;;;;12.90;3.30;;;3.30;99.90;;;;;;6161535;23;20009;-91
2023/03/07 00:51:18;;;;;;;6.30;2.78;;;3.20;99.90;;;;;;6161301;23;20001;-91
2023/03/07 00:53:44;;;;;;;13.05;3.15;;;3.20;99.90;;;;;;6161620;23;20013;-90
2023/03/07 00:56:24;;;;;;;8.55;2.50;;;3.20;99.90;;;;;;6188057;23;19997;-90
2023/03/07 00:58:51;;;;;;;6.00;2.30;;;3.20;99.90;;;;;;6161757;23;20005;-90
2023/03/07 01:01:22;;;;;;;5.90;2.30;;;3.20;99.90;;;;;;6161549;23;20081;-91
2023/03/07 01:03:48;;;;;;;7.50;2.33;;;3.20;99.90;;;;;;6161850;23;20005;-90
2023/03/07 01:06:17;;;;;;;4.10;2.28;;;3.30;99.90;;;;;;6161370;23;20112;-90
2023/03/07 01:08:43;;;;;;;5.63;1.88;;;3.30;99.90;;;;;;6161963;23;20380;-91
2023/03/07 01:11:10;;;;;;;4.03;1.90;;;3.30;99.90;;;;;;6161324;23;20001;-91
2023/03/07 01:13:36;;;;;;;8.55;2.33;;;3.30;99.90;;;;;;6161520;23;20040;-90
2023/03/07 01:16:12;;;;;;;9.30;1.90;;;3.30;99.90;;;;;;6161483;23;20012;-90
2023/03/07 01:18:38;;;;;;;5.85;2.40;;;3.30;99.90;;;;;;6161768;23;20005;-90
2023/03/07 01:21:32;;;;;;;7.80;2.60;;;3.30;99.90;;;;;;6187960;23;20024;-89
2023/03/07 01:23:58;;;;;;;7.20;2.17;;;3.30;99.90;;;;;;6182076;23;20009;-90
2023/03/07 01:26:26;;;;;;;8.60;2.30;;;3.30;99.90;;;;;;6161650;23;20051;-90
2023/03/07 01:28:54;;;;;;;13.15;2.47;;;3.30;99.90;;;;;;6161591;23;20002;-90
2023/03/07 01:31:20;;;;;;;9.73;2.40;;;3.30;99.90;;;;;;6161306;23;20005;-90
2023/03/07 01:33:47;;;;;;;10.10;2.50;;;3.30;99.90;;;;;;6161214;23;20447;-90
2023/03/07 01:36:24;;;;;;;11.48;2.40;;;3.30;99.90;;;;;;6187628;23;20008;-89
2023/03/07 01:38:53;;;;;;;8.57;3.00;;;3.30;99.90;;;;;;6187541;23;20012;-91
2023/03/07 01:41:19;;;;;;;7.40;2.80;;;3.30;99.90;;;;;;6161466;23;20397;-89
2023/03/07 01:43:45;;;;;;;8.13;3.15;;;3.30;99.90;;;;;;6188756;23;20083;-88
2023/03/07 01:46:17;;;;;;;8.25;2.75;;;3.30;99.90;;;;;;6162606;23;20452;-90
2023/03/07 01:48:59;;;;;;;7.63;2.85;;;3.30;99.90;;;;;;6169917;23;20016;-89
2023/03/07 01:51:26;;;;;;;6.68;3.10;;;3.30;99.90;;;;;;6173873;23;20065;-88
2023/03/07 01:53:54;;;;;;;11.30;4.63;;;3.30;99.90;;;;;;6199531;23;20009;-89
2023/03/07 01:56:21;;;;;;;7.65;3.50;;;3.30;99.90;;;;;;6168734;23;20005;-88
2023/03/07 01:58:47;;;;;;;6.47;2.67;;;3.20;99.90;;;;;;6167767;23;20016;-89
2023/03/07 02:01:14;;;;;;;7.03;2.92;;;3.20;99.90;;;;;;6165140;23;20001;-90
2023/03/07 02:03:43;;;;;;;3.10;2.03;;;3.20;99.90;;;;;;6160951;23;20027;-90
2023/03/07 02:06:11;;;;;;;2.97;2.15;;;3.10;99.90;;;;;;6155628;23;20051;-90
2023/03/07 02:08:39;;;;;;;2.72;1.92;;;3.10;99.90;;;;;;6131473;23;20329;-89
2023/03/07 02:11:06;;;;;;;6.22;2.10;;;3.10;99.90;;;;;;6131347;23;20463;-89
2023/03/07 02:13:31;;;;;;;4.65;2.10;;;3.10;99.90;;;;;;6157296;23;20092;-90
2023/03/07 02:16:00;;;;;;;3.40;1.95;;;3.00;99.90;;;;;;6131476;23;20032;-91
2023/03/07 02:18:29;;;;;;;3.08;1.80;;;3.00;99.90;;;;;;6131036;23;20009;-89
2023/03/07 02:21:11;;;;;;;3.35;2.28;;;3.00;99.90;;;;;;6157446;23;20010;-90
2023/03/07 02:23:42;;;;;;;5.78;2.60;;;2.90;99.90;;;;;;6155891;23;20409;-89
2023/03/07 02:26:11;;;;;;;5.32;2.03;;;2.90;99.90;;;;;;6156051;23;20013;-90
2023/03/07 02:28:38;;;;;;;3.85;2.47;;;2.90;99.90;;;;;;6155911;23;20012;-90
2023/03/07 02:31:06;;;;;;;3.70;2.10;;;2.80;99.90;;;;;;6131208;23;20315;-89
2023/03/07 02:33:33;;;;;;;2.83;2.17;;;2.70;99.90;;;;;;6130863;23;20018;-89
2023/03/07 02:36:03;;;;;;;4.95;2.00;;;2.70;99.90;;;;;;6157679;23;20068;-90
2023/03/07 02:38:36;;;;;;;4.95;2.20;;;2.70;99.90;;;;;;6130991;23;20054;-89
2023/03/07 02:41:03;;;;;;;3.00;2.00;;;2.70;99.90;;;;;;6131347;23;20020;-90
2023/03/07 02:43:28;;;;;;;3.13;2.22;;;2.60;99.90;;;;;;6131095;23;20005;-90
2023/03/07 02:45:54;;;;;;;2.90;1.92;;;2.60;99.90;;;;;;6156935;23;20001;-90
2023/03/07 02:48:20;;;;;;;2.45;1.90;;;2.60;99.90;;;;;;6156884;23;20334;-88
2023/03/07 02:50:47;;;;;;;2.70;1.90;;;2.60;99.90;;;;;;6131018;23;20002;-88
2023/03/07 02:53:13;;;;;;;5.68;1.92;;;2.60;99.90;;;;;;6130981;23;20393;-89
2023/03/07 02:55:39;;;;;;;5.13;1.80;;;2.50;99.90;;;;;;6130796;23;20009;-91
2023/03/07 02:58:04;;;;;;;4.00;1.92;;;2.50;99.90;;;;;;6130718;23;20029;-91
2023/03/07 03:00:30;;;;;;;3.83;2.13;;;2.50;99.90;;;;;;6130804;23;20095;-89
2023/03/07 03:02:56;;;;;;;4.45;2.10;;;2.50;99.90;;;;;;6130639;23;20493;-87
2023/03/07 03:05:21;;;;;;;2.60;2.08;;;2.50;99.90;;;;;;6148733;23;20013;-90
2023/03/07 03:07:47;;;;;;;2.08;1.60;;;2.50;99.90;;;;;;6160261;23;20067;-90
2023/03/07 03:10:13;;;;;;;4.50;1.92;;;2.50;99.90;;;;;;6160284;23;20007;-90
2023/03/07 03:12:39;;;;;;;3.45;1.50;;;2.50;99.90;;;;;;6159957;23;20020;-91
2023/03/07 03:15:05;;;;;;;1.92;1.50;;;2.50;99.90;;;;;;6160030;23;20044;-91
2023/03/07 03:17:31;;;;;;;2.60;1.63;;;2.50;99.90;;;;;;6159797;23;20008;-91
2023/03/07 03:19:56;;;;;;;2.72;1.40;;;2.50;99.90;;;;;;6160057;23;20033;-90
2023/03/07 03:22:22;;;;;;;3.00;1.60;;;2.50;99.90;;;;;;6160459;23;20005;-88
2023/03/07 03:24:49;;;;;;;2.58;1.00;;;2.50;99.90;;;;;;6160536;23;20017;-91
2023/03/07 03:27:14;;;;;;;3.15;1.38;;;2.40;99.90;;;;;;6186228;23;20441;-91
2023/03/07 03:29:40;;;;;;;3.03;1.60;;;2.40;99.90;;;;;;6160319;23;20012;-90
2023/03/07 03:32:06;;;;;;;4.35;1.45;;;2.40;99.90;;;;;;6159710;23;20459;-89
2023/03/07 03:34:32;;;;;;;3.45;1.20;;;2.30;99.90;;;;;;6186017;23;20009;-90
2023/03/07 03:36:57;;;;;;;2.33;1.40;;;2.30;99.90;;;;;;6160260;23;20024;-91
2023/03/07 03:39:23;;;;;;;2.70;1.30;;;2.20;99.90;;;;;;6160100;23;20012;-91
2023/03/07 03:41:49;;;;;;;2.60;1.40;;;2.20;99.90;;;;;;6160214;23;20005;-90
2023/03/07 03:44:14;;;;;;;3.42;1.02;;;2.20;99.90;;;;;;6160106;23;20032;-86
2023/03/07 03:46:40;;;;;;;2.72;1.00;;;2.20;99.90;;;;;;6184617;23;20009;-90
2023/03/07 03:49:05;;;;;;;2.22;1.20;;;2.10;99.90;;;;;;6186523;23;20005;-90
2023/03/07 03:51:31;;;;;;;5.72;1.00;;;2.10;99.90;;;;;;6161298;23;20009;-90
2023/03/07 03:53:57;;;;;;;3.45;0.52;;;2.10;99.90;;;;;;6187014;23;20036;-89
2023/03/07 03:56:24;;;;;;;6.38;0.90;;;2.00;99.90;;;;;;6161765;23;20088;-90
2023/03/07 03:58:56;;;;;;;1.55;0.88;;;2.00;99.90;;;;;;6187607;23;20008;-90
2023/03/07 04:01:23;;;;;;;2.80;0.73;;;2.00;99.90;;;;;;6190517;23;20455;-88
2023/03/07 04:03:50;;;;;;;3.42;1.30;;;2.00;99.90;;;;;;6180345;23;19992;-88
2023/03/07 04:06:26;;;;;;;0.65;0.65;;;1.90;99.90;;;;;;6210866;23;20044;-88
2023/03/07 04:08:52;;;;;;;1.20;0.63;;;2.00;99.90;;;;;;6184409;23;20005;-88
2023/03/07 04:11:19;;;;;;;1.75;0.82;;;2.00;99.90;;;;;;6168281;23;20051;-90
2023/03/07 04:13:45;;;;;;;1.30;0.80;;;1.90;99.90;;;;;;6160672;23;20021;-89
2023/03/07 04:16:11;;;;;;;3.45;1.00;;;2.00;99.90;;;;;;6160177;23;20032;-90
2023/03/07 04:18:37;;;;;;;2.65;0.80;;;2.00;99.90;;;;;;6160463;23;20005;-90
2023/03/07 04:21:04;;;;;;;1.95;0.60;;;2.00;99.90;;;;;;6161498;23;20032;-91
2023/03/07 04:23:30;;;;;;;1.25;0.70;;;1.90;99.90;;;;;;6163232;23;20012;-90
2023/03/07 04:25:58;;;;;;;3.97;0.90;;;2.00;99.90;;;;;;6163510;23;20025;-87
2023/03/07 04:28:26;;;;;;;5.18;0.95;;;1.90;99.90;;;;;;6162911;23;20075;-89
2023/03/07 04:30:52;;;;;;;6.65;0.75;;;1.90;99.90;;;;;;6163039;23;20005;-90
2023/03/07 04:33:19;;;;;;;1.48;0.63;;;1.90;99.90;;;;;;6162959;23;20125;-90
2023/03/07 04:35:45;;;;;;;3.40;0.98;;;1.90;99.90;;;;;;6163124;23;20013;-88
2023/03/07 04:38:12;;;;;;;1.52;0.65;;;1.80;99.90;;;;;;6163461;23;20009;-89
2023/03/07 04:40:38;;;;;;;4.85;1.40;;;1.80;99.90;;;;;;6164929;23;19997;-90
2023/03/07 04:43:04;;;;;;;6.25;0.77;;;1.80;99.90;;;;;;6162766;23;20043;-88
2023/03/07 04:45:34;;;;;;;2.72;0.82;;;1.70;99.90;;;;;;6163155;23;20012;-88
2023/03/07 04:47:59;;;;;;;4.07;0.80;;;1.70;99.90;;;;;;6188971;23;20009;-89
2023/03/07 04:50:27;;;;;;;3.90;1.00;;;1.70;99.90;;;;;;6189190;23;20131;-89
2023/03/07 04:52:52;;;;;;;2.70;0.80;;;1.60;99.90;;;;;;6162597;23;20017;-90
2023/03/07 04:55:18;;;;;;;5.22;0.98;;;1.60;99.90;;;;;;6162940;23;20084;-89
2023/03/07 04:57:43;;;;;;;13.40;0.90;;;1.50;99.90;;;;;;6162590;23;20012;-88
2023/03/07 05:00:10;;;;;;;3.60;0.85;;;1.50;99.90;;;;;;6162689;23;20012;-89
2023/03/07 05:02:36;;;;;;;3.08;0.65;;;1.40;99.90;;;;;;6162566;23;20059;-87
2023/03/07 05:05:03;;;;;;;1.20;0.75;;;1.40;99.90;;;;;;6188963;23;20009;-88
2023/03/07 05:07:29;;;;;;;3.75;0.70;;;1.40;99.90;;;;;;6162799;23;20087;-90
2023/03/07 05:09:55;;;;;;;1.30;0.55;;;1.30;99.90;;;;;;6188931;23;20039;-90
2023/03/07 05:12:22;;;;;;;3.20;0.80;;;1.30;99.90;;;;;;6162198;23;20032;-90
2023/03/07 05:14:47;;;;;;;4.30;0.60;;;1.30;99.90;;;;;;6162424;23;20502;-90
2023/03/07 05:17:14;;;;;;;1.13;0.68;;;1.30;99.90;;;;;;6162977;23;20020;-90
2023/03/07 05:19:40;;;;;;;2.25;0.85;;;1.30;99.90;;;;;;6162687;23;20012;-89
2023/03/07 05:22:06;;;;;;;1.20;0.60;;;1.30;99.90;;;;;;6162836;23;20001;-89
2023/03/07 05:24:32;;;;;;;1.35;0.60;;;1.30;99.90;;;;;;6188953;23;20011;-90
2023/03/07 05:26:58;;;;;;;2.35;0.50;;;1.30;99.90;;;;;;6188890;23;20075;-89
2023/03/07 05:29:23;;;;;;;1.65;0.60;;;1.30;99.90;;;;;;6162752;23;20052;-90
2023/03/07 05:31:49;;;;;;;5.57;0.68;;;1.20;99.90;;;;;;6188298;23;20000;-90
2023/03/07 05:34:16;;;;;;;2.92;0.60;;;1.20;99.90;;;;;;6187056;23;20012;-90
2023/03/07 05:36:43;;;;;;;2.40;0.70;;;1.20;99.90;;;;;;6161240;23;20009;-90
2023/03/07 05:39:09;;;;;;;4.88;0.57;;;1.10;99.90;;;;;;6161372;23;20088;-90
2023/03/07 05:41:35;;;;;;;5.63;0.65;;;1.10;99.90;;;;;;6187048;23;20005;-89
2023/03/07 05:44:00;;;;;;;8.10;1.10;;;1.00;99.90;;;;;;6187853;23;20027;-90
2023/03/07 05:46:26;;;;;;;3.70;0.40;;;1.00;99.90;;;;;;6188433;23;19997;-90
2023/03/07 05:48:52;;;;;;;5.10;0.60;;;1.10;99.90;;;;;;6187745;23;19997;-90
2023/03/07 05:51:17;;;;;;;3.80;0.80;;;1.00;99.90;;;;;;6161408;23;20032;-90
2023/03/07 05:53:45;;;;;;;3.30;0.60;;;1.00;99.90;;;;;;6161174;23;20464;-91
2023/03/07 05:56:11;;;;;;;5.28;0.68;;;1.00;99.90;;;;;;6161132;23;20085;-89
2023/03/07 05:58:37;;;;;;;2.42;0.70;;;1.00;99.90;;;;;;6162010;23;20032;-90
2023/03/07 06:01:03;;;;;;;3.53;0.90;;;0.90;99.90;;;;;;6161640;23;20377;-90
2023/03/07 06:03:29;;;;;;;7.07;0.90;;;0.90;99.90;;;;;;6164092;23;19997;-88
2023/03/07 06:05:55;;;;;;;1.02;0.55;;;0.90;99.90;;;;;;6177103;23;20035;-88
2023/03/07 06:08:20;;;;;;;2.30;0.57;;;0.90;99.90;;;;;;6174125;23;20005;-89
2023/03/07 06:10:53;;;;;;;2.65;0.50;;;0.90;99.90;;;;;;6172163;23;20005;-88
2023/03/07 06:13:21;;;;;;;10.48;0.80;;;0.90;99.90;;;;;;6168972;23;20005;-89
2023/03/07 06:15:51;;;;;;;4.15;0.68;;;0.90;99.90;;;;;;6169926;23;19997;-89
2023/03/07 06:18:17;;;;;;;4.00;0.70;;;0.90;99.90;;;;;;6170451;23;20108;-87
2023/03/07 06:20:43;;;;;;;4.63;0.55;;;0.90;99.90;;;;;;6168399;23;20013;-88
2023/03/07 06:23:09;;;;;;;3.08;0.50;;;0.90;99.90;;;;;;6188331;23;20005;-88
2023/03/07 06:25:35;;;;;;;4.25;0.40;;;1.00;99.90;;;;;;6161607;23;20017;-89
2023/03/07 06:28:01;;;;;;;1.85;0.55;;;0.90;99.90;;;;;;6160997;23;20084;-89
2023/03/07 06:30:27;;;;;;;1.15;0.50;;;0.90;99.90;;;;;;6160982;23;20052;-89
2023/03/07 06:32:53;;;;;;;10.43;0.60;;;0.90;99.90;;;;;;6160670;23;20013;-89
2023/03/07 06:35:19;;;;;;;2.90;0.45;;;0.90;99.90;;;;;;6187613;23;20068;-88
2023/03/07 06:37:46;;;;;;;3.05;0.52;;;0.80;99.90;;;;;;6185840;23;20028;-88
2023/03/07 06:40:12;;;;;;;4.82;0.65;;;0.70;99.90;;;;;;6162551;23;20008;-87
2023/03/07 06:42:38;;;;;;;5.53;0.80;;;0.70;99.90;;;;;;6161939;23;20001;-88
2023/03/07 06:45:04;;;;;;;7.93;0.98;;;0.60;99.90;;;;;;6162179;23;20008;-88
2023/03/07 06:47:30;;;;;;;3.83;1.10;;;0.50;99.90;;;;;;6188574;23;20333;-88
2023/03/07 06:49:56;;;;;;;3.88;0.85;;;0.50;99.90;;;;;;6163981;23;20005;-89
2023/03/07 06:52:22;;;;;;;1.95;0.60;;;0.40;99.90;;;;;;6198365;23;20012;-88
2023/03/07 06:54:48;;;;;;;6.57;0.68;;;0.40;99.90;;;;;;6179821;23;20036;-87
2023/03/07 06:57:13;;;;;;;1.35;0.63;;;0.40;99.90;;;;;;6180981;23;20009;-87
2023/03/07 06:59:39;;;;;;;5.32;0.75;;;0.30;99.90;;;;;;6170977;23;20008;-88
2023/03/07 07:02:05;;;;;;;3.88;0.63;;;0.30;99.90;;;;;;6161392;23;20011;-88
2023/03/07 07:04:32;;;;;;;2.15;0.35;;;0.30;99.90;;;;;;6160936;23;20028;-89
2023/03/07 07:06:57;;;;;;;4.43;0.90;;;0.20;99.90;;;;;;6161140;23;20075;-89
2023/03/07 07:09:23;;;;;;;5.45;0.85;;;0.30;99.90;;;;;;6186565;23;20020;-88
2023/03/07 07:11:48;;;;;;;3.75;0.68;;;0.20;99.90;;;;;;6186699;23;20005;-88
2023/03/07 07:14:14;;;;;;;3.95;0.70;;;0.20;99.90;;;;;;6186886;23;20005;-87
2023/03/07 07:16:40;;;;;;;5.53;0.95;;;0.20;99.90;;;;;;6160536;23;20063;-88
2023/03/07 07:19:05;;;;;;;3.42;1.20;;;0.20;99.90;;;;;;6186538;23;20443;-89
2023/03/07 07:21:31;;;;;;;5.72;0.82;;;0.20;99.90;;;;;;6160420;23;20005;-88
2023/03/07 07:23:57;;;;;;;4.50;0.77;;;0.20;99.90;;;;;;6160726;23;20388;-89
2023/03/07 07:26:23;;;;;;;4.97;1.13;;;0.20;99.90;;;;;;6159932;23;20080;-89
2023/03/07 07:28:50;;;;;;;3.55;1.10;;;0.20;99.90;;;;;;6187700;23;20005;-88
2023/03/07 07:31:16;;;;;;;3.75;0.93;;;0.20;99.90;;;;;;6190040;23;20040;-88
2023/03/07 07:33:42;;;;;;;4.85;1.20;;;0.30;99.90;;;;;;6160963;23;20021;-88
2023/03/07 07:36:08;;;;;;;7.32;1.05;;;0.30;99.90;;;;;;6160254;23;20084;-87
2023/03/07 07:38:35;;;;;;;4.85;1.00;;;0.30;99.90;;;;;;6159946;23;20033;-87
2023/03/07 07:41:01;;;;;;;6.82;0.90;;;0.30;99.90;;;;;;6160082;23;20088;-87
2023/03/07 07:43:27;;;;;;;5.57;1.13;;;0.30;99.90;;;;;;6160526;23;20444;-88
2023/03/07 07:45:53;;;;;;;5.53;0.90;;;0.30;99.90;;;;;;6159729;23;20009;-89
2023/03/07 07:48:19;;;;;;;3.42;0.70;;;0.30;99.90;;;;;;6160061;23;20008;-88
2023/03/07 07:50:45;;;;;;;5.88;0.82;;;0.30;99.90;;;;;;6159951;23;20075;-86
2023/03/07 07:53:11;;;;;;;2.72;0.90;;;0.30;99.90;;;;;;6186412;23;20015;-87
2023/03/07 07:55:37;;;;;;;2.88;0.60;;;0.30;99.90;;;;;;6159364;23;20092;-90
2023/03/07 07:58:03;;;;;;;4.15;0.65;;;0.30;99.90;;;;;;6158906;23;20013;-87
2023/03/07 08:00:28;;;;;;;2.80;0.57;;;0.40;99.90;;;;;;6159599;23;20012;-87
2023/03/07 08:02:54;;;;;;;3.10;0.43;;;0.40;99.90;;;;;;6159915;23;20009;-87
2023/03/07 08:05:20;;;;;;;2.00;0.80;;;0.40;99.90;;;;;;6159766;23;20013;-87
2023/03/07 08:07:46;;;;;;;5.05;0.60;;;0.50;99.90;;;;;;6185167;23;20451;-88
2023/03/07 08:10:14;;;;;;;12.77;1.63;;;0.50;99.90;;;;;;6186302;23;20005;-88
2023/03/07 08:12:42;;;;;;;4.18;0.70;;;0.50;99.90;;;;;;6159661;23;20017;-90
2023/03/07 08:15:08;;;;;;;4.38;0.60;;;0.70;99.90;;;;;;6159676;23;20048;-91
2023/03/07 08:17:34;;;;;;;3.78;0.63;;;0.70;99.90;;;;;;6160303;23;20041;-89
2023/03/07 08:20:03;;;;;;;0.75;0.45;;;0.80;99.90;;;;;;6159789;23;20091;-90
2023/03/07 08:22:29;;;;;;;2.78;0.68;;;0.90;99.90;;;;;;6160678;23;20016;-91
2023/03/07 08:24:54;;;;;;;1.35;0.50;;;0.90;99.90;;;;;;6160528;23;20084;-91
2023/03/07 08:27:20;;;;;;;2.85;0.60;;;1.00;99.90;;;;;;6186256;23;20012;-88
2023/03/07 08:29:49;;;;;;;1.10;0.30;;;1.10;99.90;;;;;;6186432;23;20012;-88
2023/03/07 08:32:15;;;;;;;2.22;0.57;;;1.10;99.90;;;;;;6162394;23;20083;-91
2023/03/07 08:34:40;;;;;;;2.30;0.40;;;1.10;99.90;;;;;;6160766;23;20017;-91
2023/03/07 08:37:06;;;;;;;5.70;0.68;;;1.20;99.90;;;;;;6160888;23;20020;-91
2023/03/07 08:39:31;;;;;;;3.50;0.35;;;1.20;99.90;;;;;;6186729;23;20452;-92
2023/03/07 08:41:58;;;;;;;4.60;1.10;;;1.30;99.90;;;;;;6160838;23;20009;-91
2023/03/07 08:44:24;;;;;;;3.05;0.45;;;1.30;99.90;;;;;;6187168;23;20072;-91
2023/03/07 08:46:49;;;;;;;3.90;0.50;;;1.40;99.90;;;;;;6187055;23;20067;-90
2023/03/07 08:49:15;;;;;;;1.95;0.40;;;1.40;99.90;;;;;;6160297;23;20011;-90
2023/03/07 08:51:40;;;;;;;1.20;0.50;;;1.50;99.90;;;;;;6185705;23;20009;-91
2023/03/07 08:54:06;;;;;;;4.80;0.52;;;1.50;99.90;;;;;;6160502;23;20079;-90
2023/03/07 08:56:32;;;;;;;4.90;0.60;;;1.60;99.90;;;;;;6186304;23;20001;-89
2023/03/07 08:58:57;;;;;;;2.53;0.40;;;1.60;99.90;;;;;;6187496;23;20005;-90
2023/03/07 09:01:23;;;;;;;4.50;0.60;;;1.70;99.90;;;;;;6161171;23;20012;-89
2023/03/07 09:03:49;;;;;;;7.47;0.50;;;1.70;99.90;;;;;;6181304;23;20076;-90
2023/03/07 09:06:17;;;;;;;3.60;0.60;;;1.80;99.90;;;;;;6158151;23;20024;-92
2023/03/07 09:08:44;;;;;;;0.40;0.25;;;1.80;99.90;;;;;;6188557;23;20043;-91
2023/03/07 09:11:09;;;;;;;7.25;0.90;;;1.90;99.90;;;;;;6162632;23;20032;-91
2023/03/07 09:13:35;;;;;;;3.88;0.38;;;1.90;99.90;;;;;;6161623;23;20020;-91
2023/03/07 09:16:04;;;;;;;4.20;0.55;;;1.90;99.90;;;;;;6161373;23;20135;-93
2023/03/07 09:18:29;;;;;;;3.80;0.47;;;2.00;99.90;;;;;;6161642;23;20013;-92
2023/03/07 09:20:58;;;;;;;4.07;0.50;;;2.00;99.90;;;;;;6187083;23;20009;-91
2023/03/07 09:23:25;;;;;;;4.47;0.68;;;2.10;99.90;;;;;;6189158;23;20005;-90
2023/03/07 09:25:51;;;;;;;2.38;0.50;;;2.20;99.90;;;;;;6163867;23;20005;-92
2023/03/07 09:28:17;;;;;;;8.48;1.35;;;2.20;99.90;;;;;;6165162;23;20039;-90
2023/03/07 09:30:43;;;;;;;3.70;0.77;;;2.20;99.90;;;;;;6168147;23;20005;-90
2023/03/07 09:33:08;;;;;;;3.40;0.50;;;2.30;99.90;;;;;;6171008;23;20013;-92
2023/03/07 09:35:34;;;;;;;4.13;0.93;;;2.40;99.90;;;;;;6162739;23;20063;-92
2023/03/07 09:37:59;;;;;;;2.35;0.47;;;2.50;99.90;;;;;;6162294;23;20005;-93
2023/03/07 09:40:26;;;;;;;4.95;0.82;;;2.60;99.90;;;;;;6161248;23;20290;-91
2023/03/07 09:43:17;;;;;;;1.80;0.40;;;2.60;99.90;;;;;;6161128;23;20008;-92
2023/03/07 09:46:18;;;;;;;1.38;0.40;;;2.80;99.90;;;;;;6161347;23;20001;-93
2023/03/07 09:49:28;;;;;;;0.82;0.43;;;2.90;99.90;;;;;;6161304;23;20068;-91
2023/03/07 09:51:58;;;;;;;4.47;0.40;;;3.10;99.90;;;;;;6116493;23;20009;-89
2023/03/07 09:54:36;;;;;;;2.10;0.67;;;3.40;99.90;;;;;;6162864;23;20687;-91
2023/03/07 09:57:04;;;;;;;1.90;0.40;;;3.60;99.90;;;;;;6161215;23;20005;-92
2023/03/07 09:59:45;;;;;;;4.57;0.60;;;3.80;99.90;;;;;;6160794;23;20455;-92
2023/03/07 10:02:28;;;;;;;1.50;0.70;;;4.00;99.90;;;;;;6160401;23;20005;-92
2023/03/07 10:05:22;;;;;;;2.72;0.50;;;4.00;99.90;;;;;;6155758;23;20021;-92
2023/03/07 10:07:48;;;;;;;3.08;0.70;;;3.90;99.90;;;;;;6156703;23;20001;-91
2023/03/07 10:10:21;;;;;;;1.30;0.32;;;3.90;99.90;;;;;;6131164;23;20056;-92
2023/03/07 10:13:11;;;;;;;1.48;0.40;;;4.00;99.90;;;;;;6131591;23;20021;-92
2023/03/07 10:15:59;;;;;;;3.65;0.90;;;4.10;99.90;;;;;;6157607;23;20009;-92
2023/03/07 10:18:46;;;;;;;1.58;0.63;;;4.40;99.90;;;;;;6132292;23;20024;-92
2023/03/07 10:22:04;;;;;;;4.13;0.85;;;4.80;99.90;;;;;;6132834;23;20001;-91
2023/03/07 10:24:48;;;;;;;2.70;0.93;;;5.00;99.90;;;;;;6045793;23;20003;-90
2023/03/07 10:27:15;;;;;;;1.80;0.70;;;5.40;99.90;;;;;;6034891;23;20009;-89
2023/03/07 10:29:48;;;;;;;4.97;0.77;;;5.70;99.90;;;;;;6059876;23;19988;-86
2023/03/07 10:32:38;;;;;;;2.30;0.65;;;5.90;99.90;;;;;;6063229;23;20040;-91
2023/03/07 10:35:19;;;;;;;2.88;1.10;;;6.10;99.30;;;;;;6040363;23;20059;-88
2023/03/07 10:38:10;;;;;;;1.35;0.75;;;6.10;97.90;;;;;;6063114;23;20637;-91
2023/03/07 10:40:39;;;;;;;;;;;5.90;96.40;;;;;;6017471;23;20019;-89
2023/03/07 10:43:05;;;;;;;5.18;1.90;;;5.80;96.00;;;;;;6015380;23;19902;-90
2023/03/07 10:45:32;;;;;;;1.17;0.75;;;5.70;95.50;;;;;;6037935;23;20007;-90
2023/03/07 10:48:04;;;;;;;3.47;1.02;;;5.50;94.90;;;;;;6038561;23;20011;-90
2023/03/07 10:50:35;;;;;;;4.50;0.90;;;5.40;94.50;;;;;;6039188;23;20004;-90
2023/03/07 10:53:03;;;;;;;3.25;0.60;;;5.40;94.70;;;;;;6039336;23;20020;-92
2023/03/07 10:55:29;;;;;;;5.05;0.70;;;5.70;95.00;;;;;;6038488;23;20014;-92
2023/03/07 10:58:10;;;;;;;4.40;0.60;;;5.90;94.20;;;;;;6059643;23;20088;-91
2023/03/07 11:00:36;;;;;;;5.70;0.70;;;6.20;93.80;;;;;;6130954;23;20169;-92
2023/03/07 11:03:02;;;;;;;2.67;0.50;;;6.60;93.20;;;;;;6133309;23;20044;-93
2023/03/07 11:05:32;;;;;;;1.85;0.70;;;7.00;92.40;;;;;;6152694;23;20045;-92
2023/03/07 11:07:58;;;;;;;6.17;0.67;;;7.40;91.30;;;;;;6161720;23;20012;-92
2023/03/07 11:10:40;;;;;;;3.10;0.70;;;7.80;90.70;;;;;;6162286;23;20001;-91
2023/03/07 11:13:20;;;;;;;2.85;0.60;;;8.30;88.50;;;;;;6162830;23;20139;-92
2023/03/07 11:15:47;;;;;;;;;;;8.60;86.40;;;;;;6162879;23;20005;-92
2023/03/07 11:18:39;;;;;;;1.75;1.00;;;8.90;85.60;;;;;;6159759;23;19919;-93
2023/03/07 11:21:05;;;;;;;2.42;0.50;;;9.30;83.70;;;;;;6161093;23;20005;-92
2023/03/07 11:23:31;;;;;;;2.42;0.52;;;9.60;82.20;;;;;;6160504;23;20084;-91
2023/03/07 11:26:20;;;;;;;0.95;0.50;;;9.90;81.30;;;;;;6161874;23;20009;-93
2023/03/07 11:28:46;;;;;;;2.70;0.40;;;10.20;79.10;;;;;;6164064;23;20033;-91
2023/03/07 11:31:29;;;;;;;0.73;0.28;;;10.20;77.20;;;;;;6164994;23;20001;-91
2023/03/07 11:34:09;;;;;;;1.00;0.40;;;10.10;76.50;;;;;;6162807;23;20021;-93
2023/03/07 11:36:37;;;;;;;0.52;0.38;;;9.90;75.60;;;;;;6161284;23;20013;-94
2023/03/07 11:39:38;;;;;;;1.83;0.43;;;9.70;75.70;;;;;;6160991;23;20012;-92
2023/03/07 11:42:15;;;;;;;4.57;0.65;;;9.40;74.10;;;;;;6160929;23;20005;-91
2023/03/07 11:45:01;;;;;;;1.55;0.50;;;9.10;74.10;;;;;;6161341;23;20016;-93
2023/03/07 11:47:50;;;;;;;3.63;0.55;;;9.00;74.40;;;;;;6160860;23;19997;-92
2023/03/07 11:50:25;;;;;;;0.88;0.45;;;8.90;74.50;;;;;;6187774;23;20009;-92
2023/03/07 11:53:15;;;;;;;0.65;0.20;;;8.80;74.50;;;;;;6162750;23;20368;-90
2023/03/07 11:55:52;;;;;;;5.10;0.55;;;8.60;74.10;;;;;;6162595;23;20023;-90
2023/03/07 11:58:33;;;;;;;1.23;0.40;;;8.30;73.80;;;;;;6160173;23;20004;-90
2023/03/07 12:00:58;;;;;;;1.13;0.60;;;8.20;73.80;;;;;;6186961;23;19997;-89
2023/03/07 12:03:26;;;;;;;2.78;0.30;;;8.00;74.30;;;;;;6187039;23;20044;-86
2023/03/07 12:06:37;;;;;;;4.72;0.47;;;7.90;73.60;;;;;;6155572;23;20013;-88
2023/03/07 12:09:28;;;;;;;0.32;0.22;;;7.70;74.10;;;;;;6109035;23;20009;-90
2023/03/07 12:12:23;;;;;;;0.65;0.15;;;7.60;74.60;;;;;;6163771;23;20095;-86
2023/03/07 12:15:04;;;;;;;2.22;0.40;;;7.70;74.80;;;;;;6137404;23;19997;-89
2023/03/07 12:17:37;;;;;;;0.88;0.20;;;7.80;74.80;;;;;;6176661;23;20061;-90
2023/03/07 12:20:36;;;;;;;0.75;0.40;;;8.10;74.30;;;;;;6171532;23;20002;-90
2023/03/07 12:23:11;;;;;;;2.40;0.38;;;8.30;73.40;;;;;;6141195;23;19998;-91
2023/03/07 12:25:56;;;;;;;2.53;0.75;;;8.30;72.40;;;;;;6130887;23;20029;-92
2023/03/07 12:28:34;;;;;;;1.52;0.50;;;8.10;71.50;;;;;;6155163;23;20349;-89
2023/03/07 12:31:13;;;;;;;4.88;0.60;;;7.80;71.60;;;;;;6156324;23;20008;-92
2023/03/07 12:33:52;;;;;;;1.25;0.30;;;7.50;72.00;;;;;;6156446;23;20020;-92
2023/03/07 12:36:50;;;;;;;2.10;0.43;;;7.20;72.20;;;;;;6157731;23;20012;-90
2023/03/07 12:39:31;;;;;;;1.65;0.50;;;6.90;72.50;;;;;;6127977;23;20009;-93
2023/03/07 12:41:57;;;;;;;1.73;0.40;;;6.80;73.20;;;;;;6155486;23;20191;-94
2023/03/07 12:44:37;;;;;;;0.45;0.30;;;6.70;73.50;;;;;;6133060;23;20010;-93
2023/03/07 12:47:14;;;;;;;0.80;0.20;;;6.90;74.60;;;;;;6157207;23;20010;-92
2023/03/07 12:49:52;;;;;;;1.77;0.30;;;7.60;74.20;;;;;;6131200;23;20342;-92
2023/03/07 12:52:41;;;;;;;0.70;0.20;;;8.40;72.60;;;;;;6157077;23;20021;-93
2023/03/07 12:55:35;;;;;;;1.08;0.17;;;9.10;70.10;;;;;;6156787;23;20005;-93
2023/03/07 12:58:26;;;;;;;0.45;0.30;;;9.80;68.70;;;;;;6132048;23;20006;-93
2023/03/07 13:01:37;;;;;;;2.95;0.32;;;10.20;65.90;;;;;;6155044;23;20548;-93
2023/03/07 13:04:27;;;;;;;1.02;0.40;;;10.00;64.50;;;;;;6116792;23;20006;-92
2023/03/07 13:06:59;;;;;;;0.88;0.32;;;9.60;65.10;;;;;;6160627;23;20037;-94
2023/03/07 13:09:26;;;;;;;1.85;0.45;;;9.10;64.90;;;;;;6160459;23;20460;-92
2023/03/07 13:12:23;;;;;;;1.85;0.77;;;8.80;66.00;;;;;;6160441;23;20005;-92